sensor_id;sensor_type;location;lat;lon;timestamp;P1;durP1;ratioP1;P2;durP2;ratioP2
47790;SDS011;33547;49.044;1.156;2022-10-16T00:00:44;1.88;;;1.08;;
47790;SDS011;33547;49.044;1.156;2022-10-16T00:03:10;1.08;;;0.90;;
47790;SDS011;33547;49.044;1.156;2022-10-16T00:05:40;3.47;;;1.45;;
47790;SDS011;33547;49.044;1.156;2022-10-16T00:08:09;6.75;;;1.00;;
47790;SDS011;33547;49.044;1.156;2022-10-16T00:10:38;0.85;;;0.80;;
47790;SDS011;33547;49.044;1.156;2022-10-16T00:13:05;2.42;;;1.05;;
47790;SDS011;33547;49.044;1.156;2022-10-16T00:15:33;0.95;;;0.85;;
47790;SDS011;33547;49.044;1.156;2022-10-16T00:18:01;2.53;;;1.27;;
47790;SDS011;33547;49.044;1.156;2022-10-16T00:20:29;4.57;;;1.20;;
47790;SDS011;33547;49.044;1.156;2022-10-16T00:22:56;1.83;;;1.10;;
47790;SDS011;33547;49.044;1.156;2022-10-16T00:25:22;1.17;;;0.95;;
47790;SDS011;33547;49.044;1.156;2022-10-16T00:27:48;1.58;;;0.90;;
47790;SDS011;33547;49.044;1.156;2022-10-16T00:30:14;1.35;;;1.00;;
47790;SDS011;33547;49.044;1.156;2022-10-16T00:32:40;1.63;;;1.00;;
47790;SDS011;33547;49.044;1.156;2022-10-16T00:35:06;2.90;;;1.08;;
47790;SDS011;33547;49.044;1.156;2022-10-16T00:37:32;4.43;;;1.17;;
47790;SDS011;33547;49.044;1.156;2022-10-16T00:39:57;0.77;;;0.65;;
47790;SDS011;33547;49.044;1.156;2022-10-16T00:42:23;2.53;;;1.27;;
47790;SDS011;33547;49.044;1.156;2022-10-16T00:44:54;1.70;;;1.17;;
47790;SDS011;33547;49.044;1.156;2022-10-16T00:47:24;1.30;;;0.90;;
47790;SDS011;33547;49.044;1.156;2022-10-16T00:49:58;2.67;;;0.90;;
47790;SDS011;33547;49.044;1.156;2022-10-16T00:52:57;1.77;;;1.33;;
47790;SDS011;33547;49.044;1.156;2022-10-16T00:55:24;1.20;;;1.00;;
47790;SDS011;33547;49.044;1.156;2022-10-16T00:57:51;2.33;;;1.00;;
47790;SDS011;33547;49.044;1.156;2022-10-16T01:00:20;2.47;;;1.08;;
47790;SDS011;33547;49.044;1.156;2022-10-16T01:02:52;2.15;;;0.95;;
47790;SDS011;33547;49.044;1.156;2022-10-16T01:05:39;3.90;;;1.10;;
47790;SDS011;33547;49.044;1.156;2022-10-16T01:10:51;1.70;;;1.08;;
47790;SDS011;33547;49.044;1.156;2022-10-16T01:13:33;3.30;;;0.90;;
47790;SDS011;33547;49.044;1.156;2022-10-16T01:21:43;1.38;;;0.70;;
47790;SDS011;33547;49.044;1.156;2022-10-16T01:27:08;1.23;;;1.00;;
47790;SDS011;33547;49.044;1.156;2022-10-16T01:29:53;1.50;;;0.80;;
47790;SDS011;33547;49.044;1.156;2022-10-16T01:35:21;1.58;;;0.90;;
47790;SDS011;33547;49.044;1.156;2022-10-16T01:38:04;1.13;;;0.80;;
47790;SDS011;33547;49.044;1.156;2022-10-16T01:40:38;1.63;;;0.88;;
47790;SDS011;33547;49.044;1.156;2022-10-16T01:43:11;2.08;;;0.88;;
47790;SDS011;33547;49.044;1.156;2022-10-16T01:45:42;1.90;;;0.80;;
47790;SDS011;33547;49.044;1.156;2022-10-16T01:48:10;2.85;;;1.00;;
47790;SDS011;33547;49.044;1.156;2022-10-16T01:50:42;2.33;;;0.88;;
47790;SDS011;33547;49.044;1.156;2022-10-16T01:53:11;1.58;;;0.90;;
47790;SDS011;33547;49.044;1.156;2022-10-16T01:55:40;3.50;;;1.10;;
47790;SDS011;33547;49.044;1.156;2022-10-16T01:58:10;1.00;;;0.80;;
47790;SDS011;33547;49.044;1.156;2022-10-16T02:00:39;2.40;;;0.88;;
47790;SDS011;33547;49.044;1.156;2022-10-16T02:03:09;2.13;;;0.85;;
47790;SDS011;33547;49.044;1.156;2022-10-16T02:05:42;1.35;;;1.10;;
47790;SDS011;33547;49.044;1.156;2022-10-16T02:08:19;1.67;;;0.73;;
47790;SDS011;33547;49.044;1.156;2022-10-16T02:10:48;2.05;;;0.68;;
47790;SDS011;33547;49.044;1.156;2022-10-16T02:13:18;0.88;;;0.70;;
47790;SDS011;33547;49.044;1.156;2022-10-16T02:15:51;1.48;;;0.90;;
47790;SDS011;33547;49.044;1.156;2022-10-16T02:18:17;0.80;;;0.65;;
47790;SDS011;33547;49.044;1.156;2022-10-16T02:20:55;0.60;;;0.60;;
47790;SDS011;33547;49.044;1.156;2022-10-16T02:26:07;1.08;;;0.70;;
47790;SDS011;33547;49.044;1.156;2022-10-16T02:28:40;0.70;;;0.70;;
47790;SDS011;33547;49.044;1.156;2022-10-16T02:31:11;2.00;;;0.73;;
47790;SDS011;33547;49.044;1.156;2022-10-16T02:33:43;1.00;;;0.70;;
47790;SDS011;33547;49.044;1.156;2022-10-16T02:36:10;1.92;;;0.70;;
47790;SDS011;33547;49.044;1.156;2022-10-16T02:38:37;3.30;;;0.90;;
47790;SDS011;33547;49.044;1.156;2022-10-16T02:41:05;1.77;;;0.75;;
47790;SDS011;33547;49.044;1.156;2022-10-16T02:43:31;1.00;;;0.90;;
47790;SDS011;33547;49.044;1.156;2022-10-16T02:45:58;1.15;;;0.70;;
47790;SDS011;33547;49.044;1.156;2022-10-16T02:48:25;2.42;;;0.88;;
47790;SDS011;33547;49.044;1.156;2022-10-16T02:50:50;2.72;;;0.77;;
47790;SDS011;33547;49.044;1.156;2022-10-16T02:53:16;2.63;;;1.00;;
47790;SDS011;33547;49.044;1.156;2022-10-16T02:55:42;1.55;;;1.00;;
47790;SDS011;33547;49.044;1.156;2022-10-16T02:58:09;3.67;;;1.17;;
47790;SDS011;33547;49.044;1.156;2022-10-16T03:00:34;2.00;;;0.80;;
47790;SDS011;33547;49.044;1.156;2022-10-16T03:03:00;0.90;;;0.90;;
47790;SDS011;33547;49.044;1.156;2022-10-16T03:05:26;1.30;;;0.82;;
47790;SDS011;33547;49.044;1.156;2022-10-16T03:07:52;2.13;;;0.98;;
47790;SDS011;33547;49.044;1.156;2022-10-16T03:10:18;0.90;;;0.85;;
47790;SDS011;33547;49.044;1.156;2022-10-16T03:12:44;1.92;;;0.73;;
47790;SDS011;33547;49.044;1.156;2022-10-16T03:15:10;0.93;;;0.88;;
47790;SDS011;33547;49.044;1.156;2022-10-16T03:17:36;1.83;;;0.80;;
47790;SDS011;33547;49.044;1.156;2022-10-16T03:20:02;2.67;;;0.55;;
47790;SDS011;33547;49.044;1.156;2022-10-16T03:22:28;1.40;;;0.60;;
47790;SDS011;33547;49.044;1.156;2022-10-16T03:24:54;4.53;;;0.85;;
47790;SDS011;33547;49.044;1.156;2022-10-16T03:27:20;1.85;;;0.85;;
47790;SDS011;33547;49.044;1.156;2022-10-16T03:29:46;0.82;;;0.70;;
47790;SDS011;33547;49.044;1.156;2022-10-16T03:32:12;2.53;;;0.80;;
47790;SDS011;33547;49.044;1.156;2022-10-16T03:34:37;1.45;;;1.05;;
47790;SDS011;33547;49.044;1.156;2022-10-16T03:37:03;1.10;;;0.90;;
47790;SDS011;33547;49.044;1.156;2022-10-16T03:39:29;0.77;;;0.70;;
47790;SDS011;33547;49.044;1.156;2022-10-16T03:41:55;2.72;;;0.82;;
47790;SDS011;33547;49.044;1.156;2022-10-16T03:44:21;2.05;;;1.00;;
47790;SDS011;33547;49.044;1.156;2022-10-16T03:46:47;1.95;;;0.80;;
47790;SDS011;33547;49.044;1.156;2022-10-16T03:49:12;1.92;;;0.90;;
47790;SDS011;33547;49.044;1.156;2022-10-16T03:51:38;1.13;;;0.70;;
47790;SDS011;33547;49.044;1.156;2022-10-16T03:54:04;1.33;;;0.57;;
47790;SDS011;33547;49.044;1.156;2022-10-16T03:56:30;2.60;;;0.70;;
47790;SDS011;33547;49.044;1.156;2022-10-16T03:58:56;2.42;;;0.98;;
47790;SDS011;33547;49.044;1.156;2022-10-16T04:01:22;1.40;;;0.60;;
47790;SDS011;33547;49.044;1.156;2022-10-16T04:03:48;2.00;;;1.15;;
47790;SDS011;33547;49.044;1.156;2022-10-16T04:06:13;3.55;;;0.70;;
47790;SDS011;33547;49.044;1.156;2022-10-16T04:08:41;1.40;;;0.77;;
47790;SDS011;33547;49.044;1.156;2022-10-16T04:11:08;2.17;;;0.77;;
47790;SDS011;33547;49.044;1.156;2022-10-16T04:13:34;1.88;;;0.77;;
47790;SDS011;33547;49.044;1.156;2022-10-16T04:16:00;4.50;;;0.93;;
47790;SDS011;33547;49.044;1.156;2022-10-16T04:18:26;1.10;;;1.00;;
47790;SDS011;33547;49.044;1.156;2022-10-16T04:20:52;1.55;;;0.73;;
47790;SDS011;33547;49.044;1.156;2022-10-16T04:23:19;3.67;;;0.70;;
47790;SDS011;33547;49.044;1.156;2022-10-16T04:25:45;5.32;;;0.90;;
47790;SDS011;33547;49.044;1.156;2022-10-16T04:28:11;5.90;;;0.77;;
47790;SDS011;33547;49.044;1.156;2022-10-16T04:30:39;2.88;;;0.80;;
47790;SDS011;33547;49.044;1.156;2022-10-16T04:33:05;1.73;;;0.65;;
47790;SDS011;33547;49.044;1.156;2022-10-16T04:35:33;2.35;;;1.00;;
47790;SDS011;33547;49.044;1.156;2022-10-16T04:37:58;3.17;;;1.00;;
47790;SDS011;33547;49.044;1.156;2022-10-16T04:40:24;2.55;;;0.70;;
47790;SDS011;33547;49.044;1.156;2022-10-16T04:42:50;4.93;;;0.80;;
47790;SDS011;33547;49.044;1.156;2022-10-16T04:45:16;5.47;;;0.80;;
47790;SDS011;33547;49.044;1.156;2022-10-16T04:47:42;2.30;;;0.98;;
47790;SDS011;33547;49.044;1.156;2022-10-16T04:50:08;3.55;;;1.10;;
47790;SDS011;33547;49.044;1.156;2022-10-16T04:52:34;5.32;;;0.93;;
47790;SDS011;33547;49.044;1.156;2022-10-16T04:55:00;6.80;;;1.05;;
47790;SDS011;33547;49.044;1.156;2022-10-16T04:57:28;5.72;;;1.00;;
47790;SDS011;33547;49.044;1.156;2022-10-16T04:59:54;6.07;;;0.90;;
47790;SDS011;33547;49.044;1.156;2022-10-16T05:02:20;3.53;;;0.70;;
47790;SDS011;33547;49.044;1.156;2022-10-16T05:04:46;4.22;;;0.75;;
47790;SDS011;33547;49.044;1.156;2022-10-16T05:07:12;3.28;;;0.77;;
47790;SDS011;33547;49.044;1.156;2022-10-16T05:09:38;2.78;;;0.73;;
47790;SDS011;33547;49.044;1.156;2022-10-16T05:12:03;6.95;;;0.95;;
47790;SDS011;33547;49.044;1.156;2022-10-16T05:14:29;2.83;;;1.00;;
47790;SDS011;33547;49.044;1.156;2022-10-16T05:16:55;3.72;;;0.73;;
47790;SDS011;33547;49.044;1.156;2022-10-16T05:19:25;7.50;;;1.25;;
47790;SDS011;33547;49.044;1.156;2022-10-16T05:21:51;3.40;;;1.02;;
47790;SDS011;33547;49.044;1.156;2022-10-16T05:24:17;2.47;;;0.70;;
47790;SDS011;33547;49.044;1.156;2022-10-16T05:26:43;3.25;;;0.75;;
47790;SDS011;33547;49.044;1.156;2022-10-16T05:29:09;4.10;;;1.08;;
47790;SDS011;33547;49.044;1.156;2022-10-16T05:31:34;4.50;;;1.08;;
47790;SDS011;33547;49.044;1.156;2022-10-16T05:34:00;3.20;;;0.70;;
47790;SDS011;33547;49.044;1.156;2022-10-16T05:36:27;1.95;;;0.90;;
47790;SDS011;33547;49.044;1.156;2022-10-16T05:38:53;4.45;;;0.88;;
47790;SDS011;33547;49.044;1.156;2022-10-16T05:41:19;3.17;;;1.10;;
47790;SDS011;33547;49.044;1.156;2022-10-16T05:43:47;7.13;;;1.45;;
47790;SDS011;33547;49.044;1.156;2022-10-16T05:46:13;2.58;;;0.88;;
47790;SDS011;33547;49.044;1.156;2022-10-16T05:48:40;2.03;;;1.10;;
47790;SDS011;33547;49.044;1.156;2022-10-16T05:51:08;1.25;;;0.60;;
47790;SDS011;33547;49.044;1.156;2022-10-16T05:53:36;2.53;;;0.73;;
47790;SDS011;33547;49.044;1.156;2022-10-16T05:56:04;1.48;;;0.50;;
47790;SDS011;33547;49.044;1.156;2022-10-16T05:58:32;1.13;;;0.80;;
47790;SDS011;33547;49.044;1.156;2022-10-16T06:01:09;1.20;;;0.60;;
47790;SDS011;33547;49.044;1.156;2022-10-16T06:03:38;2.17;;;0.60;;
47790;SDS011;33547;49.044;1.156;2022-10-16T06:06:24;0.75;;;0.65;;
47790;SDS011;33547;49.044;1.156;2022-10-16T06:08:52;0.57;;;0.52;;
47790;SDS011;33547;49.044;1.156;2022-10-16T06:11:21;1.45;;;0.60;;
47790;SDS011;33547;49.044;1.156;2022-10-16T06:13:50;1.83;;;0.70;;
47790;SDS011;33547;49.044;1.156;2022-10-16T06:16:21;3.83;;;0.82;;
47790;SDS011;33547;49.044;1.156;2022-10-16T06:18:50;1.10;;;0.75;;
47790;SDS011;33547;49.044;1.156;2022-10-16T06:21:18;1.67;;;0.70;;
47790;SDS011;33547;49.044;1.156;2022-10-16T06:23:49;1.55;;;0.60;;
47790;SDS011;33547;49.044;1.156;2022-10-16T06:26:17;1.40;;;0.80;;
47790;SDS011;33547;49.044;1.156;2022-10-16T06:28:46;1.20;;;0.75;;
47790;SDS011;33547;49.044;1.156;2022-10-16T06:31:13;1.63;;;0.50;;
47790;SDS011;33547;49.044;1.156;2022-10-16T06:33:40;1.50;;;0.80;;
47790;SDS011;33547;49.044;1.156;2022-10-16T06:36:08;4.10;;;0.82;;
47790;SDS011;33547;49.044;1.156;2022-10-16T06:38:35;2.75;;;1.00;;
47790;SDS011;33547;49.044;1.156;2022-10-16T06:41:01;0.95;;;0.80;;
47790;SDS011;33547;49.044;1.156;2022-10-16T06:43:29;0.40;;;0.40;;
47790;SDS011;33547;49.044;1.156;2022-10-16T06:46:00;1.15;;;0.90;;
47790;SDS011;33547;49.044;1.156;2022-10-16T06:48:27;0.93;;;0.60;;
47790;SDS011;33547;49.044;1.156;2022-10-16T06:51:02;1.27;;;0.65;;
47790;SDS011;33547;49.044;1.156;2022-10-16T06:53:31;2.42;;;0.90;;
47790;SDS011;33547;49.044;1.156;2022-10-16T06:58:43;0.68;;;0.68;;
47790;SDS011;33547;49.044;1.156;2022-10-16T07:01:10;0.73;;;0.70;;
47790;SDS011;33547;49.044;1.156;2022-10-16T07:03:37;1.50;;;0.90;;
47790;SDS011;33547;49.044;1.156;2022-10-16T07:06:06;1.20;;;0.88;;
47790;SDS011;33547;49.044;1.156;2022-10-16T07:08:34;2.22;;;0.80;;
47790;SDS011;33547;49.044;1.156;2022-10-16T07:11:03;2.33;;;0.77;;
47790;SDS011;33547;49.044;1.156;2022-10-16T07:13:36;0.65;;;0.40;;
47790;SDS011;33547;49.044;1.156;2022-10-16T07:16:10;3.40;;;0.77;;
47790;SDS011;33547;49.044;1.156;2022-10-16T07:18:41;0.77;;;0.60;;
47790;SDS011;33547;49.044;1.156;2022-10-16T07:21:11;1.55;;;0.63;;
47790;SDS011;33547;49.044;1.156;2022-10-16T07:23:43;0.70;;;0.45;;
47790;SDS011;33547;49.044;1.156;2022-10-16T07:26:09;1.20;;;0.60;;
47790;SDS011;33547;49.044;1.156;2022-10-16T07:28:36;0.88;;;0.50;;
47790;SDS011;33547;49.044;1.156;2022-10-16T07:31:03;1.10;;;0.60;;
47790;SDS011;33547;49.044;1.156;2022-10-16T07:33:33;0.60;;;0.60;;
47790;SDS011;33547;49.044;1.156;2022-10-16T07:36:00;1.85;;;0.60;;
47790;SDS011;33547;49.044;1.156;2022-10-16T07:38:26;1.08;;;0.77;;
47790;SDS011;33547;49.044;1.156;2022-10-16T07:40:59;1.83;;;1.30;;
47790;SDS011;33547;49.044;1.156;2022-10-16T07:43:28;0.80;;;0.80;;
47790;SDS011;33547;49.044;1.156;2022-10-16T07:45:54;1.00;;;0.90;;
47790;SDS011;33547;49.044;1.156;2022-10-16T07:48:22;0.82;;;0.60;;
47790;SDS011;33547;49.044;1.156;2022-10-16T07:50:48;1.67;;;1.20;;
47790;SDS011;33547;49.044;1.156;2022-10-16T07:53:14;1.77;;;0.90;;
47790;SDS011;33547;49.044;1.156;2022-10-16T07:55:41;14.23;;;1.90;;
47790;SDS011;33547;49.044;1.156;2022-10-16T07:58:07;12.25;;;1.70;;
47790;SDS011;33547;49.044;1.156;2022-10-16T08:00:33;5.07;;;0.90;;
47790;SDS011;33547;49.044;1.156;2022-10-16T08:03:01;1.90;;;0.88;;
47790;SDS011;33547;49.044;1.156;2022-10-16T08:05:27;4.30;;;1.20;;
47790;SDS011;33547;49.044;1.156;2022-10-16T08:07:55;0.95;;;0.70;;
47790;SDS011;33547;49.044;1.156;2022-10-16T08:10:22;4.32;;;1.25;;
47790;SDS011;33547;49.044;1.156;2022-10-16T08:12:51;6.85;;;1.45;;
47790;SDS011;33547;49.044;1.156;2022-10-16T08:15:18;3.10;;;1.00;;
47790;SDS011;33547;49.044;1.156;2022-10-16T08:17:44;5.38;;;1.10;;
47790;SDS011;33547;49.044;1.156;2022-10-16T08:20:26;2.45;;;1.50;;
47790;SDS011;33547;49.044;1.156;2022-10-16T08:22:53;7.47;;;1.15;;
47790;SDS011;33547;49.044;1.156;2022-10-16T08:25:21;2.38;;;0.85;;
47790;SDS011;33547;49.044;1.156;2022-10-16T08:27:48;2.83;;;1.20;;
47790;SDS011;33547;49.044;1.156;2022-10-16T08:30:14;3.13;;;1.40;;
47790;SDS011;33547;49.044;1.156;2022-10-16T08:32:41;1.80;;;1.40;;
47790;SDS011;33547;49.044;1.156;2022-10-16T08:35:10;1.40;;;1.30;;
47790;SDS011;33547;49.044;1.156;2022-10-16T08:37:39;3.40;;;1.25;;
47790;SDS011;33547;49.044;1.156;2022-10-16T08:40:06;2.05;;;1.45;;
47790;SDS011;33547;49.044;1.156;2022-10-16T08:51:04;2.17;;;1.45;;
47790;SDS011;33547;49.044;1.156;2022-10-16T08:54:15;2.80;;;1.50;;
47790;SDS011;33547;49.044;1.156;2022-10-16T08:56:24;1.85;;;1.70;;
47790;SDS011;33547;49.044;1.156;2022-10-16T08:58:51;1.63;;;1.52;;
47790;SDS011;33547;49.044;1.156;2022-10-16T09:01:19;1.95;;;1.70;;
47790;SDS011;33547;49.044;1.156;2022-10-16T09:09:24;3.03;;;1.83;;
47790;SDS011;33547;49.044;1.156;2022-10-16T09:12:10;3.30;;;1.70;;
47790;SDS011;33547;49.044;1.156;2022-10-16T09:25:30;3.45;;;1.70;;
47790;SDS011;33547;49.044;1.156;2022-10-16T09:27:57;5.40;;;2.08;;
47790;SDS011;33547;49.044;1.156;2022-10-16T09:30:23;4.97;;;2.03;;
47790;SDS011;33547;49.044;1.156;2022-10-16T09:32:54;5.10;;;2.20;;
47790;SDS011;33547;49.044;1.156;2022-10-16T09:35:24;4.25;;;1.98;;
47790;SDS011;33547;49.044;1.156;2022-10-16T09:38:01;4.45;;;2.28;;
47790;SDS011;33547;49.044;1.156;2022-10-16T09:40:45;6.55;;;2.33;;
47790;SDS011;33547;49.044;1.156;2022-10-16T09:45:55;6.78;;;2.70;;
47790;SDS011;33547;49.044;1.156;2022-10-16T09:49:05;4.85;;;2.25;;
47790;SDS011;33547;49.044;1.156;2022-10-16T09:52:05;3.60;;;2.13;;
47790;SDS011;33547;49.044;1.156;2022-10-16T09:54:37;10.68;;;2.15;;
47790;SDS011;33547;49.044;1.156;2022-10-16T09:57:14;7.22;;;2.33;;
47790;SDS011;33547;49.044;1.156;2022-10-16T09:59:50;4.55;;;1.90;;
47790;SDS011;33547;49.044;1.156;2022-10-16T10:02:18;3.83;;;2.25;;
47790;SDS011;33547;49.044;1.156;2022-10-16T10:04:56;4.22;;;2.00;;
47790;SDS011;33547;49.044;1.156;2022-10-16T10:07:26;3.13;;;1.80;;
47790;SDS011;33547;49.044;1.156;2022-10-16T10:09:59;5.43;;;2.05;;
47790;SDS011;33547;49.044;1.156;2022-10-16T10:12:29;4.13;;;2.65;;
47790;SDS011;33547;49.044;1.156;2022-10-16T10:14:58;4.05;;;2.20;;
47790;SDS011;33547;49.044;1.156;2022-10-16T10:17:44;2.83;;;2.10;;
47790;SDS011;33547;49.044;1.156;2022-10-16T10:20:24;5.05;;;2.30;;
47790;SDS011;33547;49.044;1.156;2022-10-16T10:22:55;3.88;;;2.30;;
47790;SDS011;33547;49.044;1.156;2022-10-16T10:28:53;3.60;;;1.80;;
47790;SDS011;33547;49.044;1.156;2022-10-16T10:31:42;3.97;;;1.80;;
47790;SDS011;33547;49.044;1.156;2022-10-16T10:34:52;3.58;;;1.85;;
47790;SDS011;33547;49.044;1.156;2022-10-16T10:46:41;3.03;;;1.80;;
47790;SDS011;33547;49.044;1.156;2022-10-16T10:58:58;4.10;;;2.40;;
47790;SDS011;33547;49.044;1.156;2022-10-16T11:04:33;2.55;;;1.67;;
47790;SDS011;33547;49.044;1.156;2022-10-16T11:07:25;3.90;;;1.92;;
47790;SDS011;33547;49.044;1.156;2022-10-16T11:12:47;3.45;;;2.28;;
47790;SDS011;33547;49.044;1.156;2022-10-16T11:15:28;1.85;;;1.45;;
47790;SDS011;33547;49.044;1.156;2022-10-16T11:18:00;2.85;;;1.75;;
47790;SDS011;33547;49.044;1.156;2022-10-16T11:20:34;3.80;;;2.00;;
47790;SDS011;33547;49.044;1.156;2022-10-16T11:23:07;2.70;;;1.85;;
47790;SDS011;33547;49.044;1.156;2022-10-16T11:25:41;3.90;;;2.22;;
47790;SDS011;33547;49.044;1.156;2022-10-16T11:28:16;3.80;;;1.50;;
47790;SDS011;33547;49.044;1.156;2022-10-16T11:37:08;3.88;;;1.67;;
47790;SDS011;33547;49.044;1.156;2022-10-16T11:39:35;2.15;;;1.60;;
47790;SDS011;33547;49.044;1.156;2022-10-16T11:42:16;7.50;;;2.42;;
47790;SDS011;33547;49.044;1.156;2022-10-16T11:45:13;2.72;;;1.70;;
47790;SDS011;33547;49.044;1.156;2022-10-16T11:48:23;2.58;;;1.90;;
47790;SDS011;33547;49.044;1.156;2022-10-16T11:51:11;1.60;;;1.50;;
47790;SDS011;33547;49.044;1.156;2022-10-16T11:57:02;10.20;;;2.40;;
47790;SDS011;33547;49.044;1.156;2022-10-16T12:00:24;5.55;;;1.98;;
47790;SDS011;33547;49.044;1.156;2022-10-16T12:02:57;5.90;;;1.70;;
47790;SDS011;33547;49.044;1.156;2022-10-16T12:08:22;4.97;;;2.13;;
47790;SDS011;33547;49.044;1.156;2022-10-16T12:10:48;4.25;;;2.13;;
47790;SDS011;33547;49.044;1.156;2022-10-16T12:16:07;4.28;;;2.10;;
47790;SDS011;33547;49.044;1.156;2022-10-16T12:18:47;4.40;;;2.15;;
47790;SDS011;33547;49.044;1.156;2022-10-16T12:21:14;3.67;;;1.90;;
47790;SDS011;33547;49.044;1.156;2022-10-16T12:23:51;3.33;;;1.90;;
47790;SDS011;33547;49.044;1.156;2022-10-16T12:26:27;4.43;;;1.77;;
47790;SDS011;33547;49.044;1.156;2022-10-16T12:28:57;3.95;;;2.42;;
47790;SDS011;33547;49.044;1.156;2022-10-16T12:31:58;4.07;;;1.65;;
47790;SDS011;33547;49.044;1.156;2022-10-16T12:34:28;4.55;;;1.88;;
47790;SDS011;33547;49.044;1.156;2022-10-16T12:37:09;2.97;;;1.88;;
47790;SDS011;33547;49.044;1.156;2022-10-16T12:39:48;2.97;;;1.77;;
47790;SDS011;33547;49.044;1.156;2022-10-16T12:42:22;3.10;;;1.75;;
47790;SDS011;33547;49.044;1.156;2022-10-16T12:44:51;3.65;;;1.30;;
47790;SDS011;33547;49.044;1.156;2022-10-16T12:49:57;2.20;;;1.70;;
47790;SDS011;33547;49.044;1.156;2022-10-16T12:54:59;2.72;;;1.20;;
47790;SDS011;33547;49.044;1.156;2022-10-16T13:00:50;5.22;;;1.92;;
47790;SDS011;33547;49.044;1.156;2022-10-16T13:15:27;3.03;;;1.63;;
47790;SDS011;33547;49.044;1.156;2022-10-16T13:21:26;2.92;;;1.77;;
47790;SDS011;33547;49.044;1.156;2022-10-16T13:30:22;2.70;;;1.15;;
47790;SDS011;33547;49.044;1.156;2022-10-16T13:32:59;2.83;;;1.73;;
47790;SDS011;33547;49.044;1.156;2022-10-16T13:35:33;2.22;;;1.27;;
47790;SDS011;33547;49.044;1.156;2022-10-16T13:38:17;2.60;;;1.30;;
47790;SDS011;33547;49.044;1.156;2022-10-16T13:43:27;2.67;;;1.60;;
47790;SDS011;33547;49.044;1.156;2022-10-16T13:46:01;1.73;;;1.38;;
47790;SDS011;33547;49.044;1.156;2022-10-16T13:48:55;1.33;;;1.10;;
47790;SDS011;33547;49.044;1.156;2022-10-16T13:51:30;1.40;;;1.30;;
47790;SDS011;33547;49.044;1.156;2022-10-16T13:53:57;1.35;;;1.10;;
47790;SDS011;33547;49.044;1.156;2022-10-16T13:56:31;3.88;;;1.38;;
47790;SDS011;33547;49.044;1.156;2022-10-16T13:58:58;2.67;;;1.33;;
47790;SDS011;33547;49.044;1.156;2022-10-16T14:01:40;2.08;;;1.10;;
47790;SDS011;33547;49.044;1.156;2022-10-16T14:04:09;1.70;;;1.35;;
47790;SDS011;33547;49.044;1.156;2022-10-16T14:06:40;2.05;;;1.40;;
47790;SDS011;33547;49.044;1.156;2022-10-16T14:09:20;1.60;;;1.15;;
47790;SDS011;33547;49.044;1.156;2022-10-16T14:11:55;1.35;;;1.00;;
47790;SDS011;33547;49.044;1.156;2022-10-16T14:14:23;1.35;;;0.90;;
47790;SDS011;33547;49.044;1.156;2022-10-16T14:16:51;1.88;;;1.10;;
47790;SDS011;33547;49.044;1.156;2022-10-16T14:19:22;1.30;;;1.00;;
47790;SDS011;33547;49.044;1.156;2022-10-16T14:21:52;1.33;;;1.02;;
47790;SDS011;33547;49.044;1.156;2022-10-16T14:24:36;1.05;;;0.95;;
47790;SDS011;33547;49.044;1.156;2022-10-16T14:27:20;2.00;;;1.13;;
47790;SDS011;33547;49.044;1.156;2022-10-16T14:33:01;2.80;;;1.23;;
47790;SDS011;33547;49.044;1.156;2022-10-16T14:38:03;1.85;;;1.10;;
47790;SDS011;33547;49.044;1.156;2022-10-16T14:40:32;1.83;;;1.42;;
47790;SDS011;33547;49.044;1.156;2022-10-16T14:43:01;2.03;;;1.10;;
47790;SDS011;33547;49.044;1.156;2022-10-16T14:45:29;1.08;;;0.80;;
47790;SDS011;33547;49.044;1.156;2022-10-16T14:47:59;2.03;;;0.93;;
47790;SDS011;33547;49.044;1.156;2022-10-16T14:50:29;1.45;;;0.82;;
47790;SDS011;33547;49.044;1.156;2022-10-16T14:52:55;1.33;;;0.80;;
47790;SDS011;33547;49.044;1.156;2022-10-16T14:55:21;1.08;;;0.75;;
47790;SDS011;33547;49.044;1.156;2022-10-16T14:57:47;1.10;;;0.80;;
47790;SDS011;33547;49.044;1.156;2022-10-16T15:00:17;1.77;;;0.82;;
47790;SDS011;33547;49.044;1.156;2022-10-16T15:02:47;0.90;;;0.80;;
47790;SDS011;33547;49.044;1.156;2022-10-16T15:07:54;1.30;;;0.93;;
47790;SDS011;33547;49.044;1.156;2022-10-16T15:10:21;1.20;;;0.90;;
47790;SDS011;33547;49.044;1.156;2022-10-16T15:12:49;1.13;;;0.90;;
47790;SDS011;33547;49.044;1.156;2022-10-16T15:17:48;1.60;;;1.15;;
47790;SDS011;33547;49.044;1.156;2022-10-16T15:20:23;1.30;;;1.10;;
47790;SDS011;33547;49.044;1.156;2022-10-16T15:22:50;1.23;;;0.80;;
47790;SDS011;33547;49.044;1.156;2022-10-16T15:25:30;1.40;;;0.80;;
47790;SDS011;33547;49.044;1.156;2022-10-16T15:28:07;1.70;;;1.00;;
47790;SDS011;33547;49.044;1.156;2022-10-16T15:30:34;1.80;;;0.98;;
47790;SDS011;33547;49.044;1.156;2022-10-16T15:33:02;1.00;;;0.90;;
47790;SDS011;33547;49.044;1.156;2022-10-16T15:35:29;2.60;;;1.00;;
47790;SDS011;33547;49.044;1.156;2022-10-16T15:37:55;0.88;;;0.70;;
47790;SDS011;33547;49.044;1.156;2022-10-16T15:40:21;1.30;;;0.90;;
47790;SDS011;33547;49.044;1.156;2022-10-16T15:42:47;2.00;;;0.80;;
47790;SDS011;33547;49.044;1.156;2022-10-16T15:45:14;1.35;;;0.80;;
47790;SDS011;33547;49.044;1.156;2022-10-16T15:47:41;1.20;;;0.90;;
47790;SDS011;33547;49.044;1.156;2022-10-16T15:50:09;0.60;;;0.60;;
47790;SDS011;33547;49.044;1.156;2022-10-16T15:52:37;0.73;;;0.70;;
47790;SDS011;33547;49.044;1.156;2022-10-16T15:55:05;1.30;;;0.75;;
47790;SDS011;33547;49.044;1.156;2022-10-16T15:57:33;0.70;;;0.70;;
47790;SDS011;33547;49.044;1.156;2022-10-16T15:59:59;0.70;;;0.70;;
47790;SDS011;33547;49.044;1.156;2022-10-16T16:02:25;1.15;;;0.70;;
47790;SDS011;33547;49.044;1.156;2022-10-16T16:04:51;1.27;;;1.00;;
47790;SDS011;33547;49.044;1.156;2022-10-16T16:07:17;0.80;;;0.80;;
47790;SDS011;33547;49.044;1.156;2022-10-16T16:09:43;0.80;;;0.80;;
47790;SDS011;33547;49.044;1.156;2022-10-16T16:12:10;1.08;;;0.65;;
47790;SDS011;33547;49.044;1.156;2022-10-16T16:14:36;0.70;;;0.65;;
47790;SDS011;33547;49.044;1.156;2022-10-16T16:17:01;1.27;;;0.77;;
47790;SDS011;33547;49.044;1.156;2022-10-16T16:19:27;0.93;;;0.70;;
47790;SDS011;33547;49.044;1.156;2022-10-16T16:21:53;1.30;;;1.00;;
47790;SDS011;33547;49.044;1.156;2022-10-16T16:24:19;2.08;;;0.90;;
47790;SDS011;33547;49.044;1.156;2022-10-16T16:26:45;1.38;;;0.90;;
47790;SDS011;33547;49.044;1.156;2022-10-16T16:29:11;1.23;;;0.77;;
47790;SDS011;33547;49.044;1.156;2022-10-16T16:31:39;1.00;;;1.00;;
47790;SDS011;33547;49.044;1.156;2022-10-16T16:34:06;0.80;;;0.80;;
47790;SDS011;33547;49.044;1.156;2022-10-16T16:36:34;0.95;;;0.80;;
47790;SDS011;33547;49.044;1.156;2022-10-16T16:39:00;1.05;;;1.00;;
47790;SDS011;33547;49.044;1.156;2022-10-16T16:41:28;1.70;;;1.05;;
47790;SDS011;33547;49.044;1.156;2022-10-16T16:43:55;1.88;;;1.05;;
47790;SDS011;33547;49.044;1.156;2022-10-16T16:48:58;0.90;;;0.90;;
47790;SDS011;33547;49.044;1.156;2022-10-16T16:51:24;0.90;;;0.90;;
47790;SDS011;33547;49.044;1.156;2022-10-16T16:53:51;1.35;;;1.05;;
47790;SDS011;33547;49.044;1.156;2022-10-16T16:56:19;1.30;;;1.23;;
47790;SDS011;33547;49.044;1.156;2022-10-16T16:58:46;3.58;;;1.20;;
47790;SDS011;33547;49.044;1.156;2022-10-16T17:01:18;1.00;;;1.00;;
47790;SDS011;33547;49.044;1.156;2022-10-16T17:03:44;1.30;;;1.25;;
47790;SDS011;33547;49.044;1.156;2022-10-16T17:06:10;1.90;;;1.52;;
47790;SDS011;33547;49.044;1.156;2022-10-16T17:08:39;2.70;;;1.30;;
47790;SDS011;33547;49.044;1.156;2022-10-16T17:11:06;4.63;;;1.42;;
47790;SDS011;33547;49.044;1.156;2022-10-16T17:13:37;2.05;;;1.40;;
47790;SDS011;33547;49.044;1.156;2022-10-16T17:16:04;3.00;;;1.13;;
47790;SDS011;33547;49.044;1.156;2022-10-16T17:18:31;1.85;;;1.50;;
47790;SDS011;33547;49.044;1.156;2022-10-16T17:20:59;1.17;;;1.17;;
47790;SDS011;33547;49.044;1.156;2022-10-16T17:23:30;4.35;;;1.50;;